Time;durP1;ratioP1;P1;durP2;ratioP2;P2;SDS_P1;SDS_P2;PMS_P1;PMS_P2;Temp;Humidity;BMP_temperature;BMP_pressure;BME280_temperature;BME280_humidity;BME280_pressure;Samples;Min_cycle;Max_cycle;Signal;HPM_P1;HPM_P2
2023/03/24 00:00:22;;;;;;;;;;;;;;;16.47;58.63;99020.19;4986456;28;8132;-72
2023/03/24 00:02:50;;;;;;;;;;;;;;;16.48;58.00;99011.56;4964957;28;6799;-74
2023/03/24 00:05:20;;;;;;;;;;;;;;;16.49;58.33;99011.53;4984256;28;6995;-73
2023/03/24 00:07:47;;;;;;;;;;;;;;;16.49;58.64;99002.94;4978190;28;6820;-73
2023/03/24 00:10:17;;;;;;;;;;;;;;;16.46;58.32;98996.03;4978918;28;7561;-75
2023/03/24 00:12:45;;;;;;;;;;;;;;;16.42;58.75;98996.91;4966485;28;7154;-74
2023/03/24 00:15:18;;;;;;;;;;;;;;;16.40;58.95;98985.66;4961808;28;7020;-72
2023/03/24 00:17:49;;;;;;;;;;;;;;;16.38;59.01;98992.56;4991279;28;6816;-73
2023/03/24 00:20:16;;;;;;;;;;;;;;;16.38;58.81;98992.56;4963786;28;6808;-73
2023/03/24 00:22:49;;;;;;;;;;;;;;;16.37;59.13;98990.84;4982728;28;6824;-75
2023/03/24 00:25:23;;;;;;;;;;;;;;;16.36;59.32;98981.38;4964002;28;7265;-75
2023/03/24 00:27:50;;;;;;;;;;;;;;;16.35;59.04;98977.06;4960219;28;7179;-73
2023/03/24 00:30:18;;;;;;;;;;;;;;;16.32;59.11;98954.63;4976349;28;7311;-72
2023/03/24 00:32:45;;;;;;;;;;;;;;;16.31;59.72;98977.91;4978016;28;7000;-74
2023/03/24 00:35:15;;;;;;;;;;;;;;;16.33;59.61;98978.78;4973582;28;6816;-75
2023/03/24 00:37:43;;;;;;;;;;;;;;;16.33;59.58;98974.47;4981470;28;7253;-74
2023/03/24 00:40:16;;;;;;;;;;;;;;;16.34;59.60;98977.94;4982208;28;7110;-74
2023/03/24 00:42:45;;;;;;;;;;;;;;;16.32;60.16;98984.78;4980922;28;6792;-73
2023/03/24 00:45:18;;;;;;;;;;;;;;;16.31;60.07;98971.03;4953740;28;7053;-72
2023/03/24 00:47:44;;;;;;;;;;;;;;;16.28;60.24;98975.31;4986952;28;6800;-76
2023/03/24 00:50:25;;;;;;;;;;;;;;;16.26;60.05;98971.88;4988217;28;7263;-73
2023/03/24 00:52:52;;;;;;;;;;;;;;;16.23;60.33;98963.25;4976302;28;6795;-74
2023/03/24 00:55:18;;;;;;;;;;;;;;;16.20;60.13;98962.38;4981156;28;7302;-74
2023/03/24 00:57:49;;;;;;;;;;;;;;;16.20;60.22;98949.47;4979980;28;7381;-74
2023/03/24 01:00:20;;;;;;;;;;;;;;;16.19;60.60;98950.31;4981216;28;7176;-73
2023/03/24 01:02:54;;;;;;;;;;;;;;;16.19;60.45;98938.25;4983356;28;6824;-74
2023/03/24 01:05:26;;;;;;;;;;;;;;;16.20;60.71;98929.63;4979916;28;6803;-72
2023/03/24 01:08:02;;;;;;;;;;;;;;;16.23;60.75;98924.47;4974208;28;6796;-73
2023/03/24 01:10:31;;;;;;;;;;;;;;;16.22;60.78;98915.00;4966546;28;6868;-75
2023/03/24 01:12:59;;;;;;;;;;;;;;;16.22;60.94;98920.19;4978086;28;7207;-74
2023/03/24 01:15:32;;;;;;;;;;;;;;;16.23;60.87;98921.03;4970299;28;7239;-72
2023/03/24 01:18:01;;;;;;;;;;;;;;;16.24;60.89;98908.13;4982283;28;6800;-74
2023/03/24 01:20:31;;;;;;;;;;;;;;;16.28;60.58;98915.84;4981405;28;7861;-74
2023/03/24 01:23:00;;;;;;;;;;;;;;;16.29;60.93;98920.16;4964876;28;6804;-75
2023/03/24 01:25:26;;;;;;;;;;;;;;;16.29;60.97;98902.94;4965227;28;6797;-75
2023/03/24 01:27:53;;;;;;;;;;;;;;;16.30;60.87;98901.19;4981416;28;7197;-75
2023/03/24 01:30:26;;;;;;;;;;;;;;;16.32;60.71;98899.47;4983044;28;8623;-75
2023/03/24 01:32:52;;;;;;;;;;;;;;;16.32;60.95;98895.19;4985353;28;6960;-75
2023/03/24 01:35:21;;;;;;;;;;;;;;;16.35;60.87;98891.75;4982649;28;6776;-75
2023/03/24 01:37:46;;;;;;;;;;;;;;;16.37;61.07;98877.97;4960901;28;6981;-75
2023/03/24 01:40:22;;;;;;;;;;;;;;;16.39;60.89;98870.19;4978674;28;6969;-75
2023/03/24 01:42:50;;;;;;;;;;;;;;;16.42;61.28;98865.03;4973325;28;6848;-75
2023/03/24 01:45:53;;;;;;;;;;;;;;;16.43;60.82;98846.06;4967427;28;7133;-75
2023/03/24 01:48:52;;;;;;;;;;;;;;;16.44;60.87;98842.63;4987105;28;7066;-75
2023/03/24 01:51:40;;;;;;;;;;;;;;;16.47;60.93;98852.94;4982380;28;6807;-75
2023/03/24 01:54:15;;;;;;;;;;;;;;;16.57;60.61;98853.81;4978653;28;6860;-75
2023/03/24 01:56:55;;;;;;;;;;;;;;;16.64;60.53;98833.97;4980406;28;8106;-75
2023/03/24 01:59:27;;;;;;;;;;;;;;;16.64;60.52;98845.16;4973219;28;7157;-75
2023/03/24 02:02:01;;;;;;;;;;;;;;;16.63;60.21;98837.41;4966712;28;6961;-75
2023/03/24 02:04:37;;;;;;;;;;;;;;;16.63;60.17;98820.16;4962748;28;6828;-75
2023/03/24 02:07:17;;;;;;;;;;;;;;;16.67;60.43;98828.78;4960133;28;7025;-75
2023/03/24 02:09:43;;;;;;;;;;;;;;;16.71;60.19;98814.13;4962490;28;6864;-75
2023/03/24 02:12:09;;;;;;;;;;;;;;;16.77;60.05;98820.13;4987911;28;6867;-75
2023/03/24 02:14:36;;;;;;;;;;;;;;;16.87;59.76;98830.44;4981324;28;6788;-75
2023/03/24 02:17:08;;;;;;;;;;;;;;;16.95;59.65;98826.13;4974763;28;7098;-75
2023/03/24 02:19:59;;;;;;;;;;;;;;;17.03;59.46;98816.63;4968955;28;6796;-75
2023/03/24 02:22:53;;;;;;;;;;;;;;;17.10;59.67;98811.44;4984449;28;6972;-75
2023/03/24 02:26:02;;;;;;;;;;;;;;;17.16;58.81;98804.50;4987576;28;7010;-75
2023/03/24 02:28:53;;;;;;;;;;;;;;;17.18;58.58;98807.06;4988131;28;6808;-75
2023/03/24 02:32:02;;;;;;;;;;;;;;;17.27;57.57;98825.16;4990913;28;7230;-75
2023/03/24 02:35:24;;;;;;;;;;;;;;;17.32;57.44;98796.66;4986678;28;7023;-75
2023/03/24 02:38:14;;;;;;;;;;;;;;;17.41;57.23;98806.13;4984501;28;6816;-75
2023/03/24 02:40:52;;;;;;;;;;;;;;;17.46;57.24;98809.53;4989202;28;7014;-75
2023/03/24 02:44:03;;;;;;;;;;;;;;;17.54;56.68;98807.75;4982696;28;6872;-75
2023/03/24 02:46:54;;;;;;;;;;;;;;;17.58;56.84;98814.66;4987685;28;7185;-75
2023/03/24 02:50:07;;;;;;;;;;;;;;;17.60;56.79;98823.28;4985340;28;8181;-75
2023/03/24 02:52:45;;;;;;;;;;;;;;;17.62;56.45;98803.41;4945590;28;6821;-75
2023/03/24 02:55:30;;;;;;;;;;;;;;;17.66;56.77;98827.56;4974678;28;7256;-75
2023/03/24 02:58:31;;;;;;;;;;;;;;;17.74;56.25;98804.19;4986274;28;7331;-75
2023/03/24 03:01:13;;;;;;;;;;;;;;;17.78;56.08;98816.25;4969798;28;6982;-75
2023/03/24 03:03:49;;;;;;;;;;;;;;;17.82;55.92;98798.94;4985880;28;7334;-75
2023/03/24 03:06:24;;;;;;;;;;;;;;;17.88;55.69;98817.91;4962427;28;7209;-75
2023/03/24 03:08:53;;;;;;;;;;;;;;;17.92;55.52;98808.38;4983209;28;7324;-75
2023/03/24 03:11:19;;;;;;;;;;;;;;;17.96;55.32;98810.06;4987327;28;8860;-75
2023/03/24 03:14:06;;;;;;;;;;;;;;;17.99;55.44;98819.56;4987197;28;6808;-78
2023/03/24 03:17:05;;;;;;;;;;;;;;;17.99;55.30;98814.38;4984635;28;7058;-75
2023/03/24 03:19:43;;;;;;;;;;;;;;;17.96;55.68;98815.25;4984673;28;6836;-76
2023/03/24 03:22:22;;;;;;;;;;;;;;;17.97;55.48;98822.16;4987618;28;6808;-78
2023/03/24 03:24:53;;;;;;;;;;;;;;;17.95;54.84;98818.72;4986431;28;7282;-76
2023/03/24 03:27:37;;;;;;;;;;;;;;;17.84;55.37;98823.97;4984660;28;6812;-76
2023/03/24 03:30:22;;;;;;;;;;;;;;;17.73;55.66;98825.78;4970234;28;7257;-79
2023/03/24 03:32:56;;;;;;;;;;;;;;;17.59;56.21;98811.19;4985462;28;11217;-77
2023/03/24 03:35:47;;;;;;;;;;;;;;;17.46;56.16;98827.66;4976074;28;6850;-76
2023/03/24 03:38:27;;;;;;;;;;;;;;;17.32;56.46;98825.13;4966576;28;6943;-76
2023/03/24 03:40:58;;;;;;;;;;;;;;;17.25;57.53;98829.47;4971802;28;7063;-78
2023/03/24 03:43:26;;;;;;;;;;;;;;;17.25;57.75;98839.00;4965987;28;6824;-78
2023/03/24 03:45:53;;;;;;;;;;;;;;;17.26;57.37;98838.13;4983952;28;6807;-78
2023/03/24 03:48:20;;;;;;;;;;;;;;;17.22;57.35;98834.69;4988699;28;7872;-78
2023/03/24 03:50:47;;;;;;;;;;;;;;;17.14;57.53;98844.22;4967161;28;7146;-79
2023/03/24 03:53:17;;;;;;;;;;;;;;;17.05;57.55;98827.84;4979333;28;6784;-79
2023/03/24 03:55:44;;;;;;;;;;;;;;;16.96;58.25;98843.38;4971200;28;7023;-79
2023/03/24 03:58:09;;;;;;;;;;;;;;;16.89;58.85;98865.81;4982616;28;8786;-77
2023/03/24 04:00:36;;;;;;;;;;;;;;;16.82;59.04;98889.97;4990414;28;6784;-79
2023/03/24 04:03:48;;;;;;;;;;;;;;;16.73;59.12;98903.78;4983805;28;8521;-78
2023/03/24 04:06:58;;;;;;;;;;;;;;;16.62;59.07;98897.78;4982562;28;7155;-79
2023/03/24 04:10:19;;;;;;;;;;;;;;;16.54;59.47;98900.34;4990105;28;6820;-79
2023/03/24 04:13:23;;;;;;;;;;;;;;;16.48;59.37;98923.63;4987741;28;6808;-79
2023/03/24 04:16:31;;;;;;;;;;;;;;;16.42;59.22;98928.78;4987340;28;6977;-79
2023/03/24 04:19:31;;;;;;;;;;;;;;;16.40;59.96;98935.69;4990008;28;7962;-79
2023/03/24 04:22:14;;;;;;;;;;;;;;;16.43;59.54;98949.50;4981926;28;7019;-79
2023/03/24 04:25:45;;;;;;;;;;;;;;;16.45;59.35;98946.88;4975286;28;6849;-77
2023/03/24 04:29:09;;;;;;;;;;;;;;;16.47;59.76;98974.47;4971346;28;8465;-79
2023/03/24 04:31:50;;;;;;;;;;;;;;;16.49;59.01;98970.16;4918393;29;6816;-78
2023/03/24 04:34:31;;;;;;;;;;;;;;;16.48;58.94;98976.19;4959057;28;7016;-79
2023/03/24 04:37:07;;;;;;;;;;;;;;;16.49;59.07;98979.66;4979551;28;6796;-78
2023/03/24 04:39:40;;;;;;;;;;;;;;;16.46;58.91;98993.44;4987456;28;6827;-78
2023/03/24 04:42:26;;;;;;;;;;;;;;;16.44;58.67;98994.28;4977381;28;7387;-79
2023/03/24 04:44:52;;;;;;;;;;;;;;;16.38;58.44;99006.38;4979876;28;7081;-79
2023/03/24 04:47:26;;;;;;;;;;;;;;;16.36;58.16;99002.91;4980056;28;6995;-79
2023/03/24 04:50:06;;;;;;;;;;;;;;;16.33;58.29;98999.47;4985181;28;6875;-79
2023/03/24 04:52:32;;;;;;;;;;;;;;;16.26;58.17;99015.81;4981291;28;6999;-78
2023/03/24 04:54:59;;;;;;;;;;;;;;;16.20;57.77;99022.69;4974818;28;7028;-75
2023/03/24 04:57:25;;;;;;;;;;;;;;;16.13;57.48;99031.28;4964732;28;6804;-73
2023/03/24 04:59:51;;;;;;;;;;;;;;;16.05;57.48;99035.56;4975176;28;7587;-75
2023/03/24 05:02:17;;;;;;;;;;;;;;;15.95;57.04;99045.88;4977396;28;6890;-75
2023/03/24 05:04:42;;;;;;;;;;;;;;;15.86;56.73;99045.78;4970963;28;7809;-75
2023/03/24 05:07:08;;;;;;;;;;;;;;;15.73;56.65;99050.03;4977843;28;6760;-75
2023/03/24 05:09:33;;;;;;;;;;;;;;;15.62;55.89;99060.28;4980780;28;6930;-75
2023/03/24 05:11:59;;;;;;;;;;;;;;;15.53;56.02;99060.22;4985534;28;7089;-75
2023/03/24 05:14:25;;;;;;;;;;;;;;;15.43;56.22;99071.34;4971929;28;6965;-75
2023/03/24 05:16:50;;;;;;;;;;;;;;;15.33;56.00;99078.19;4979150;28;8288;-75
2023/03/24 05:19:16;;;;;;;;;;;;;;;15.24;55.87;99084.13;4989264;28;6832;-75
2023/03/24 05:21:42;;;;;;;;;;;;;;;15.12;56.07;99085.75;4984719;28;6807;-75
2023/03/24 05:24:07;;;;;;;;;;;;;;;15.03;55.79;99085.69;4996554;28;6987;-75
2023/03/24 05:26:34;;;;;;;;;;;;;;;14.94;56.65;99086.47;4977925;28;7229;-75
2023/03/24 05:29:00;;;;;;;;;;;;;;;14.89;55.97;99087.28;4984296;28;7085;-75
2023/03/24 05:31:26;;;;;;;;;;;;;;;14.82;56.28;99106.97;4981969;28;7881;-75
2023/03/24 05:33:51;;;;;;;;;;;;;;;14.75;56.43;99106.06;4986327;28;6990;-75
2023/03/24 05:36:17;;;;;;;;;;;;;;;14.71;56.90;99119.75;4984697;28;7734;-75
2023/03/24 05:38:43;;;;;;;;;;;;;;;14.66;56.47;99126.56;4977856;28;6780;-75
2023/03/24 05:41:08;;;;;;;;;;;;;;;14.60;56.94;99117.03;4987346;28;6987;-75
2023/03/24 05:43:34;;;;;;;;;;;;;;;14.56;55.95;99123.03;4975313;28;6969;-75
2023/03/24 05:46:00;;;;;;;;;;;;;;;14.51;56.24;99117.81;4969659;28;7295;-75
2023/03/24 05:48:26;;;;;;;;;;;;;;;14.46;55.96;99123.75;4980211;28;7272;-75
2023/03/24 05:50:53;;;;;;;;;;;;;;;14.40;55.81;99129.72;4981157;28;6848;-75
2023/03/24 05:53:18;;;;;;;;;;;;;;;14.35;56.47;99132.25;4980930;28;8549;-75
2023/03/24 05:55:45;;;;;;;;;;;;;;;14.30;56.62;99136.47;4991057;28;7238;-75
2023/03/24 05:58:11;;;;;;;;;;;;;;;14.25;55.84;99146.72;4975098;28;7214;-74
2023/03/24 06:00:37;;;;;;;;;;;;;;;14.21;55.79;99146.66;4960023;28;6981;-77
2023/03/24 06:03:04;;;;;;;;;;;;;;;14.18;55.78;99147.47;4979097;28;6772;-77
2023/03/24 06:05:31;;;;;;;;;;;;;;;14.13;55.67;99146.56;4973903;28;6808;-76
2023/03/24 06:07:57;;;;;;;;;;;;;;;14.08;55.64;99156.78;4978532;28;7108;-76
2023/03/24 06:10:28;;;;;;;;;;;;;;;14.07;55.56;99154.19;4975788;28;6828;-76
2023/03/24 06:12:55;;;;;;;;;;;;;;;14.03;55.41;99163.59;4975211;28;8172;-76
2023/03/24 06:15:26;;;;;;;;;;;;;;;14.01;55.24;99175.59;4979931;28;7271;-76
2023/03/24 06:17:53;;;;;;;;;;;;;;;13.97;55.09;99169.50;4981003;28;6915;-76
2023/03/24 06:20:21;;;;;;;;;;;;;;;13.94;55.50;99177.22;4990768;28;7002;-76
2023/03/24 06:22:48;;;;;;;;;;;;;;;13.93;55.97;99179.75;4984166;28;6983;-77
2023/03/24 06:25:20;;;;;;;;;;;;;;;13.90;56.01;99190.88;4968156;28;6784;-76
2023/03/24 06:27:46;;;;;;;;;;;;;;;13.86;56.03;99189.09;4975809;28;7743;-76
2023/03/24 06:30:15;;;;;;;;;;;;;;;13.84;55.98;99178.75;4984030;28;6847;-76
2023/03/24 06:32:42;;;;;;;;;;;;;;;13.84;55.89;99195.94;4986779;28;6800;-76
2023/03/24 06:35:07;;;;;;;;;;;;;;;13.85;55.87;99200.25;4983536;28;6991;-76
2023/03/24 06:37:33;;;;;;;;;;;;;;;13.86;56.19;99210.59;4976837;28;7184;-76
2023/03/24 06:39:59;;;;;;;;;;;;;;;13.88;56.09;99211.47;4985837;28;7226;-77
2023/03/24 06:42:26;;;;;;;;;;;;;;;13.91;55.86;99217.50;4981223;28;6853;-76
2023/03/24 06:44:51;;;;;;;;;;;;;;;13.94;56.83;99226.16;4952267;28;7014;-76
2023/03/24 06:47:17;;;;;;;;;;;;;;;13.99;56.49;99214.19;4968197;28;7987;-77
2023/03/24 06:49:43;;;;;;;;;;;;;;;14.04;56.06;99211.69;4987831;28;6919;-76
2023/03/24 06:52:09;;;;;;;;;;;;;;;14.10;55.84;99216.06;4993900;28;7241;-76
2023/03/24 06:54:34;;;;;;;;;;;;;;;14.13;56.08;99210.97;4985937;28;6768;-76
2023/03/24 06:57:00;;;;;;;;;;;;;;;14.13;56.65;99205.81;4982430;28;6780;-76
2023/03/24 06:59:27;;;;;;;;;;;;;;;14.16;57.07;99203.28;4982443;28;6851;-76
2023/03/24 07:01:53;;;;;;;;;;;;;;;14.19;56.88;99195.56;4972942;28;7238;-76
2023/03/24 07:04:19;;;;;;;;;;;;;;;14.25;56.44;99202.56;4983424;28;7246;-76
2023/03/24 07:06:46;;;;;;;;;;;;;;;14.32;56.92;99190.59;4989451;28;6874;-76
2023/03/24 07:09:12;;;;;;;;;;;;;;;14.41;57.04;99198.47;4962988;28;7889;-75
2023/03/24 07:11:38;;;;;;;;;;;;;;;14.52;56.33;99190.84;4992946;28;8063;-75
2023/03/24 07:14:04;;;;;;;;;;;;;;;14.60;56.51;99201.28;4987977;28;7032;-76
2023/03/24 07:16:30;;;;;;;;;;;;;;;14.67;56.14;99215.97;4985325;28;7438;-75
2023/03/24 07:18:56;;;;;;;;;;;;;;;14.70;56.86;99228.91;4985423;28;6831;-75
2023/03/24 07:21:21;;;;;;;;;;;;;;;14.72;56.23;99209.16;4987224;28;7256;-75
2023/03/24 07:23:47;;;;;;;;;;;;;;;14.76;55.35;99220.41;4986380;28;6902;-75
2023/03/24 07:26:12;;;;;;;;;;;;;;;14.78;55.58;99229.91;4983619;28;6980;-75
2023/03/24 07:28:38;;;;;;;;;;;;;;;14.80;55.36;99206.69;4988012;28;6776;-75
2023/03/24 07:31:09;;;;;;;;;;;;;;;14.82;55.42;99217.88;4976452;28;7497;-76
2023/03/24 07:33:37;;;;;;;;;;;;;;;14.89;55.88;99226.59;4965734;28;7003;-76
2023/03/24 07:36:03;;;;;;;;;;;;;;;14.93;55.65;99223.19;4970638;28;6997;-75
2023/03/24 07:38:29;;;;;;;;;;;;;;;15.00;54.90;99230.16;4989580;28;6812;-75
2023/03/24 07:40:58;;;;;;;;;;;;;;;15.05;55.83;99231.03;4961689;28;7325;-75
2023/03/24 07:43:23;;;;;;;;;;;;;;;15.11;55.16;99227.66;4987452;28;6795;-75
2023/03/24 07:45:49;;;;;;;;;;;;;;;15.17;54.93;99235.47;4985937;28;6781;-75
2023/03/24 07:48:15;;;;;;;;;;;;;;;15.26;54.90;99234.72;4979216;28;6980;-75
2023/03/24 07:50:41;;;;;;;;;;;;;;;15.37;54.99;99248.59;4991493;28;6839;-76
2023/03/24 07:53:08;;;;;;;;;;;;;;;15.50;54.97;99253.88;4971560;28;6840;-76
2023/03/24 07:55:38;;;;;;;;;;;;;;;15.63;54.85;99250.53;4988417;28;7806;-75
2023/03/24 07:58:05;;;;;;;;;;;;;;;15.72;53.81;99264.41;4974496;28;7236;-76
2023/03/24 08:00:31;;;;;;;;;;;;;;;15.77;54.03;99258.41;4975767;28;7234;-76
2023/03/24 08:02:58;;;;;;;;;;;;;;;15.79;53.61;99255.84;4978026;28;7280;-75
2023/03/24 08:05:27;;;;;;;;;;;;;;;15.80;53.46;99270.50;4973289;28;7606;-76
2023/03/24 08:07:52;;;;;;;;;;;;;;;15.83;53.61;99267.94;4983824;28;6820;-73
2023/03/24 08:10:28;;;;;;;;;;;;;;;15.85;53.43;99281.75;4977877;28;7157;-76
2023/03/24 08:12:55;;;;;;;;;;;;;;;15.87;53.47;99263.66;4977741;28;7002;-76
2023/03/24 08:15:21;;;;;;;;;;;;;;;15.90;53.12;99262.00;4978165;28;6859;-73
2023/03/24 08:17:48;;;;;;;;;;;;;;;15.93;53.07;99264.63;4975496;28;8528;-74
2023/03/24 08:20:15;;;;;;;;;;;;;;;15.99;53.20;99274.16;4968967;28;7010;-75
2023/03/24 08:22:48;;;;;;;;;;;;;;;16.07;52.93;99284.53;4951413;28;8501;-75
2023/03/24 08:25:19;;;;;;;;;;;;;;;16.17;53.05;99278.56;4964490;28;6971;-76
2023/03/24 08:27:46;;;;;;;;;;;;;;;16.29;52.37;99282.09;4979086;28;6984;-74
2023/03/24 08:30:20;;;;;;;;;;;;;;;16.34;52.05;99276.09;4963196;28;6831;-73
2023/03/24 08:32:56;;;;;;;;;;;;;;;16.40;52.04;99277.00;4969577;28;6968;-75
2023/03/24 08:35:30;;;;;;;;;;;;;;;16.46;52.05;99269.25;4968123;28;7180;-74
2023/03/24 08:38:00;;;;;;;;;;;;;;;16.50;51.89;99271.03;4986749;28;7214;-73
2023/03/24 08:40:28;;;;;;;;;;;;;;;16.57;51.61;99277.09;4984866;28;6872;-74
2023/03/24 08:42:57;;;;;;;;;;;;;;;16.63;51.27;99269.38;4983006;28;7182;-74
2023/03/24 08:45:27;;;;;;;;;;;;;;;16.68;51.21;99278.00;4983297;28;7222;-74
2023/03/24 08:47:54;;;;;;;;;;;;;;;16.76;50.54;99278.06;4984228;28;6966;-73
2023/03/24 08:50:24;;;;;;;;;;;;;;;16.83;50.65;99278.97;4988141;28;6800;-73
2023/03/24 08:52:50;;;;;;;;;;;;;;;16.89;50.48;99274.66;4984046;28;6876;-74
2023/03/24 08:55:18;;;;;;;;;;;;;;;16.92;50.07;99279.84;4987006;28;6785;-75
2023/03/24 08:57:44;;;;;;;;;;;;;;;16.97;50.07;99284.19;4982557;28;6796;-73
2023/03/24 09:00:14;;;;;;;;;;;;;;;17.01;50.13;99289.41;4961633;28;7249;-75
2023/03/24 09:02:45;;;;;;;;;;;;;;;17.07;50.13;99288.56;4990577;28;7030;-73
2023/03/24 09:05:12;;;;;;;;;;;;;;;17.18;49.86;99288.59;4982289;28;6927;-73
2023/03/24 09:07:38;;;;;;;;;;;;;;;17.26;49.32;99284.31;4969428;28;7059;-75
2023/03/24 09:10:09;;;;;;;;;;;;;;;17.33;49.48;99303.31;4982233;28;6788;-74
2023/03/24 09:12:36;;;;;;;;;;;;;;;17.40;49.03;99296.44;4983076;28;6784;-73
2023/03/24 09:15:04;;;;;;;;;;;;;;;17.43;49.23;99296.44;4989953;28;7192;-75
2023/03/24 09:17:30;;;;;;;;;;;;;;;17.51;48.59;99296.44;4948061;28;7000;-73
2023/03/24 09:19:55;;;;;;;;;;;;;;;17.58;48.82;99295.59;4987844;28;7119;-76
2023/03/24 09:22:21;;;;;;;;;;;;;;;17.68;48.38;99301.69;4978765;28;6947;-73
2023/03/24 09:24:48;;;;;;;;;;;;;;;17.74;48.30;99299.06;4982990;28;7038;-75
2023/03/24 09:27:17;;;;;;;;;;;;;;;17.78;47.92;99285.28;4991656;28;6780;-74
2023/03/24 09:29:43;;;;;;;;;;;;;;;17.84;48.64;99293.03;4996205;28;8095;-75
2023/03/24 09:32:09;;;;;;;;;;;;;;;17.96;48.12;99291.31;4963269;28;6964;-74
2023/03/24 09:34:37;;;;;;;;;;;;;;;18.08;47.60;99293.06;4976938;28;6993;-74
2023/03/24 09:37:06;;;;;;;;;;;;;;;18.17;47.51;99296.53;4996602;28;6848;-73
2023/03/24 09:39:35;;;;;;;;;;;;;;;18.30;47.51;99296.50;4964471;28;7214;-74
2023/03/24 09:42:04;;;;;;;;;;;;;;;18.46;47.14;99306.00;4983236;28;7096;-73
2023/03/24 09:44:45;;;;;;;;;;;;;;;18.64;47.16;99304.25;4983605;28;7252;-74
2023/03/24 09:47:40;;;;;;;;;;;;;;;18.75;46.57;99306.78;4962436;28;7214;-76
2023/03/24 09:50:24;;;;;;;;;;;;;;;18.81;46.16;99313.69;4968778;28;7011;-72
2023/03/24 09:52:58;;;;;;;;;;;;;;;18.83;45.81;99305.03;4984873;28;6992;-73
2023/03/24 09:55:27;;;;;;;;;;;;;;;18.86;46.29;99302.41;4962014;28;7408;-74
2023/03/24 09:58:04;;;;;;;;;;;;;;;18.91;46.16;99298.97;4968999;28;7004;-74
2023/03/24 10:00:33;;;;;;;;;;;;;;;18.89;45.51;99317.13;4980867;28;7169;-72
2023/03/24 10:03:20;;;;;;;;;;;;;;;18.83;44.82;99314.53;4996138;28;6998;-73
2023/03/24 10:06:00;;;;;;;;;;;;;;;18.77;45.08;99312.81;4973108;28;7268;-72
2023/03/24 10:08:36;;;;;;;;;;;;;;;18.74;45.54;99318.91;4950935;28;7015;-75
2023/03/24 10:11:28;;;;;;;;;;;;;;;18.79;45.69;99318.03;4979393;28;6880;-74
2023/03/24 10:14:26;;;;;;;;;;;;;;;18.84;45.13;99321.50;4966393;28;7014;-78
2023/03/24 10:17:13;;;;;;;;;;;;;;;18.92;44.96;99319.69;4976267;28;9413;-75
2023/03/24 10:19:47;;;;;;;;;;;;;;;18.99;44.95;99318.81;4978099;28;6816;-75
2023/03/24 10:22:21;;;;;;;;;;;;;;;19.13;45.61;99328.34;4979382;28;6966;-75
2023/03/24 10:25:05;;;;;;;;;;;;;;;19.38;45.91;99305.69;4970360;28;6916;-75
2023/03/24 10:27:50;;;;;;;;;;;;;;;19.83;45.13;99323.59;4983437;28;6828;-75
2023/03/24 10:30:19;;;;;;;;;;;;;;;20.56;44.24;99319.50;4968571;28;7040;-76
2023/03/24 10:32:45;;;;;;;;;;;;;;;21.22;42.44;99311.84;4979210;28;7003;-77
2023/03/24 10:35:30;;;;;;;;;;;;;;;21.69;41.09;99313.84;4973544;28;6983;-75
2023/03/24 10:38:01;;;;;;;;;;;;;;;21.78;40.48;99309.34;4988741;28;6880;-74
2023/03/24 10:40:32;;;;;;;;;;;;;;;21.89;40.09;99314.38;4980174;28;6832;-75
2023/03/24 10:43:02;;;;;;;;;;;;;;;22.17;40.25;99316.53;4972763;28;6784;-75
2023/03/24 10:45:33;;;;;;;;;;;;;;;22.61;39.11;99307.94;4979812;28;6807;-75
2023/03/24 10:48:01;;;;;;;;;;;;;;;22.65;37.86;99309.63;4989644;28;6876;-75
2023/03/24 10:50:31;;;;;;;;;;;;;;;22.52;37.95;99308.13;4985279;28;7163;-75
2023/03/24 10:52:57;;;;;;;;;;;;;;;22.60;37.72;99298.41;4993054;28;7022;-74
2023/03/24 10:55:30;;;;;;;;;;;;;;;23.07;37.71;99292.25;4995334;28;6976;-75
2023/03/24 10:58:00;;;;;;;;;;;;;;;23.27;36.80;99299.63;4964742;28;8058;-75
2023/03/24 11:00:30;;;;;;;;;;;;;;;22.94;36.50;99302.09;4971541;28;6803;-74
2023/03/24 11:03:07;;;;;;;;;;;;;;;22.70;37.02;99301.72;4989680;28;6811;-74
2023/03/24 11:05:38;;;;;;;;;;;;;;;22.25;36.75;99319.00;4983448;28;6816;-74
2023/03/24 11:08:16;;;;;;;;;;;;;;;21.90;37.09;99302.19;4991464;28;6808;-74
2023/03/24 11:10:42;;;;;;;;;;;;;;;21.44;37.40;99329.78;4987230;28;7888;-74
2023/03/24 11:13:28;;;;;;;;;;;;;;;21.11;37.83;99322.41;4989783;28;6800;-75
2023/03/24 11:16:12;;;;;;;;;;;;;;;20.78;38.23;99327.13;4988710;28;7011;-74
2023/03/24 11:19:05;;;;;;;;;;;;;;;20.48;38.28;99327.41;4955895;28;7269;-74
2023/03/24 11:21:36;;;;;;;;;;;;;;;20.20;38.66;99338.06;4975567;28;6812;-74
2023/03/24 11:24:13;;;;;;;;;;;;;;;19.98;39.23;99338.25;4971072;28;7059;-75
2023/03/24 11:26:51;;;;;;;;;;;;;;;19.92;39.61;99340.00;4988535;28;6812;-74
2023/03/24 11:29:24;;;;;;;;;;;;;;;20.05;40.07;99340.81;4990880;28;6808;-75
2023/03/24 11:32:04;;;;;;;;;;;;;;;20.25;39.27;99340.63;4953044;28;7015;-74
2023/03/24 11:34:43;;;;;;;;;;;;;;;20.69;39.30;99335.88;4976192;28;6800;-74
2023/03/24 11:37:23;;;;;;;;;;;;;;;21.32;38.35;99330.81;4979156;28;7216;-74
2023/03/24 11:40:11;;;;;;;;;;;;;;;21.97;38.27;99322.09;4957033;28;6804;-74
2023/03/24 11:42:58;;;;;;;;;;;;;;;22.87;36.59;99323.09;4970238;28;6849;-75
2023/03/24 11:45:33;;;;;;;;;;;;;;;23.72;34.70;99323.06;4973504;28;13578;-74
2023/03/24 11:48:03;;;;;;;;;;;;;;;24.29;33.06;99317.38;4979429;28;9635;-74
2023/03/24 11:50:37;;;;;;;;;;;;;;;24.82;33.08;99306.38;4980929;28;6784;-74
2023/03/24 11:53:17;;;;;;;;;;;;;;;25.24;32.29;99317.38;4983285;28;7180;-74
2023/03/24 11:56:18;;;;;;;;;;;;;;;25.80;31.76;99307.84;4979533;28;7040;-75
2023/03/24 11:59:14;;;;;;;;;;;;;;;26.53;31.75;99300.16;4965547;28;7047;-75
2023/03/24 12:01:55;;;;;;;;;;;;;;;26.96;30.75;99300.38;4972453;28;7355;-74
2023/03/24 12:05:04;;;;;;;;;;;;;;;27.17;29.91;99303.09;4983507;28;6947;-74
2023/03/24 12:08:00;;;;;;;;;;;;;;;26.57;29.64;99306.16;4967724;28;7438;-74
2023/03/24 12:11:00;;;;;;;;;;;;;;;25.44;30.59;99302.81;4984245;28;7236;-74
2023/03/24 12:13:44;;;;;;;;;;;;;;;24.48;31.76;99309.88;4984656;28;6971;-74
2023/03/24 12:16:24;;;;;;;;;;;;;;;23.82;32.39;99301.91;4982840;28;6803;-74
2023/03/24 12:19:19;;;;;;;;;;;;;;;23.32;32.76;99300.44;4987995;28;6788;-74
2023/03/24 12:21:57;;;;;;;;;;;;;;;22.92;33.14;99302.13;4980996;28;6884;-74
2023/03/24 12:24:46;;;;;;;;;;;;;;;22.59;33.26;99310.59;4985166;28;8576;-74
2023/03/24 12:28:02;;;;;;;;;;;;;;;22.19;33.51;99303.44;4977454;28;7109;-74
2023/03/24 12:31:00;;;;;;;;;;;;;;;21.89;33.74;99300.47;4967365;28;8071;-75
2023/03/24 12:33:37;;;;;;;;;;;;;;;21.71;34.15;99306.84;4979421;28;7130;-74
2023/03/24 12:36:31;;;;;;;;;;;;;;;21.66;34.01;99306.88;4981846;28;7239;-74
2023/03/24 12:39:28;;;;;;;;;;;;;;;21.53;33.96;99301.00;4985309;28;7141;-74
2023/03/24 12:42:18;;;;;;;;;;;;;;;21.41;34.12;99304.63;4973225;28;6803;-75
2023/03/24 12:45:43;;;;;;;;;;;;;;;21.27;34.22;99309.19;4983090;28;7983;-74
2023/03/24 12:48:43;;;;;;;;;;;;;;;21.08;34.45;99318.09;4987146;28;6880;-74
2023/03/24 12:51:51;;;;;;;;;;;;;;;20.94;34.55;99297.41;4968513;28;6804;-75
2023/03/24 12:54:28;;;;;;;;;;;;;;;20.85;34.66;99307.09;4986959;28;8478;-74
2023/03/24 12:57:07;;;;;;;;;;;;;;;20.78;35.03;99303.69;4983226;28;6823;-75
2023/03/24 12:59:43;;;;;;;;;;;;;;;20.67;35.53;99312.47;4983407;28;6828;-74
2023/03/24 13:02:21;;;;;;;;;;;;;;;20.57;35.66;99302.16;4988679;28;6871;-75
2023/03/24 13:04:51;;;;;;;;;;;;;;;20.47;35.50;99304.00;4986274;28;6804;-74
2023/03/24 13:07:24;;;;;;;;;;;;;;;20.43;35.72;99297.97;4967548;28;6800;-74
2023/03/24 13:10:14;;;;;;;;;;;;;;;20.40;35.54;99298.00;4984627;28;6792;-74
2023/03/24 13:12:56;;;;;;;;;;;;;;;20.37;35.50;99314.50;4965061;28;6812;-74
2023/03/24 13:15:37;;;;;;;;;;;;;;;20.33;35.94;99325.81;4979008;28;6784;-74
2023/03/24 13:18:25;;;;;;;;;;;;;;;20.16;35.93;99338.97;4975450;28;6879;-74
2023/03/24 13:21:06;;;;;;;;;;;;;;;19.73;37.25;99321.94;4976506;28;8048;-74
2023/03/24 13:24:12;;;;;;;;;;;;;;;19.64;38.86;99311.59;4976240;28;7524;-74
2023/03/24 13:27:23;;;;;;;;;;;;;;;20.18;39.47;99308.59;4966308;28;7021;-75
2023/03/24 13:30:36;;;;;;;;;;;;;;;20.83;38.03;99314.06;4895968;29;7243;-75
2023/03/24 13:33:16;;;;;;;;;;;;;;;21.49;37.28;99304.53;4888663;29;12800;-75
2023/03/24 13:36:05;;;;;;;;;;;;;;;21.96;36.74;99291.66;4980257;28;6816;-75
2023/03/24 13:38:49;;;;;;;;;;;;;;;22.49;35.91;99295.97;4960154;28;7987;-75
2023/03/24 13:41:23;;;;;;;;;;;;;;;22.71;35.24;99300.81;4978453;28;6792;-75